createdAt,value
2023-01-04T00:00:06.760Z,291
2023-01-04T00:00:34.670Z,292
2023-01-04T00:00:50.925Z,292
2023-01-04T00:01:34.726Z,292
2023-01-04T00:02:06.518Z,292
2023-01-04T00:02:38.740Z,292
2023-01-04T00:03:10.560Z,292
2023-01-04T00:03:42.591Z,292
2023-01-04T00:04:14.665Z,292
2023-01-04T00:04:46.458Z,292
2023-01-04T00:05:18.967Z,292
2023-01-04T00:05:50.332Z,292
2023-01-04T00:06:22.320Z,292
2023-01-04T00:06:54.763Z,292
2023-01-04T00:07:26.429Z,292
2023-01-04T00:07:58.215Z,292
2023-01-04T00:08:30.254Z,292
2023-01-04T00:09:02.433Z,291
2023-01-04T00:09:34.225Z,291
2023-01-04T00:09:50.297Z,291
2023-01-04T00:10:22.307Z,291
2023-01-04T00:10:38.065Z,291
2023-01-04T00:11:10.325Z,291
2023-01-04T00:11:42.016Z,291
2023-01-04T00:12:14.098Z,291
2023-01-04T00:12:46.273Z,291
2023-01-04T00:13:18.114Z,291
2023-01-04T00:13:50.036Z,291
2023-01-04T00:14:06.039Z,291
2023-01-04T00:14:37.815Z,291
2023-01-04T00:15:22.332Z,291
2023-01-04T00:15:54.345Z,291
2023-01-04T00:16:26.194Z,291
2023-01-04T00:16:57.930Z,291
2023-01-04T00:17:29.872Z,291
2023-01-04T00:18:01.971Z,291
2023-01-04T00:18:33.709Z,291
2023-01-04T00:19:05.885Z,290
2023-01-04T00:19:37.739Z,290
2023-01-04T00:20:10.230Z,290
2023-01-04T00:20:41.589Z,290
2023-01-04T00:21:13.828Z,290
2023-01-04T00:21:45.869Z,290
2023-01-04T00:22:17.662Z,290
2023-01-04T00:22:49.612Z,290
2023-01-04T00:23:05.941Z,290
2023-01-04T00:23:49.586Z,290
2023-01-04T00:24:21.583Z,290
2023-01-04T00:24:53.606Z,290
2023-01-04T00:25:26.151Z,290
2023-01-04T00:25:57.499Z,290
2023-01-04T00:26:29.578Z,290
2023-01-04T00:27:01.782Z,292
2023-01-04T00:27:33.438Z,300
2023-01-04T00:28:05.730Z,85
2023-01-04T00:28:37.439Z,97
2023-01-04T00:29:09.701Z,99
2023-01-04T00:29:41.300Z,99
2023-01-04T00:30:14.481Z,98
2023-01-04T00:30:45.672Z,99
2023-01-04T00:31:17.443Z,98
2023-01-04T00:31:49.354Z,57
2023-01-04T00:32:05.760Z,61
2023-01-04T00:32:37.340Z,83
2023-01-04T00:33:21.212Z,95
2023-01-04T00:33:53.100Z,95
2023-01-04T00:34:25.472Z,103
2023-01-04T00:34:57.174Z,104
2023-01-04T00:35:45.224Z,104
2023-01-04T00:36:01.241Z,104
2023-01-04T00:36:32.968Z,104
2023-01-04T00:37:05.360Z,104
2023-01-04T00:37:21.132Z,104
2023-01-04T00:37:52.867Z,104
2023-01-04T00:38:37.015Z,104
2023-01-04T00:39:09.311Z,103
2023-01-04T00:39:41.199Z,103
2023-01-04T00:40:13.225Z,103
2023-01-04T00:40:45.258Z,103
2023-01-04T00:41:34.840Z,104
2023-01-04T00:42:05.485Z,104
2023-01-04T00:42:20.994Z,104
2023-01-04T00:42:52.835Z,104
2023-01-04T00:43:25.105Z,104
2023-01-04T00:43:56.750Z,104
2023-01-04T00:44:28.872Z,104
2023-01-04T00:45:01.785Z,104
2023-01-04T00:45:32.582Z,104
2023-01-04T00:46:05.544Z,104
2023-01-04T00:46:20.841Z,82
2023-01-04T00:47:05.750Z,81
2023-01-04T00:47:36.660Z,81
2023-01-04T00:48:08.382Z,81
2023-01-04T00:48:43.011Z,81
2023-01-04T00:49:12.650Z,81
2023-01-04T00:49:44.715Z,64
2023-01-04T00:50:16.769Z,29
2023-01-04T00:50:48.589Z,30
2023-01-04T00:51:05.430Z,30
2023-01-04T00:51:36.558Z,30
2023-01-04T00:52:20.595Z,30
2023-01-04T00:52:52.280Z,30
2023-01-04T00:53:08.356Z,30
2023-01-04T00:53:40.508Z,30
2023-01-04T00:54:24.574Z,30
2023-01-04T00:54:56.453Z,30
2023-01-04T00:55:28.466Z,30
2023-01-04T00:56:00.483Z,30
2023-01-04T00:56:32.314Z,30
2023-01-04T00:57:04.910Z,30
2023-01-04T00:57:20.389Z,30
2023-01-04T00:57:52.268Z,30
2023-01-04T00:58:36.222Z,30
2023-01-04T00:59:08.152Z,30
2023-01-04T00:59:40.218Z,30
2023-01-04T01:00:13.578Z,30
2023-01-04T01:00:44.308Z,30
2023-01-04T01:01:16.227Z,30
2023-01-04T01:01:48.150Z,30
2023-01-04T01:02:05.055Z,30
2023-01-04T01:02:48.250Z,30
2023-01-04T01:03:05.119Z,30
2023-01-04T01:03:48.030Z,30
2023-01-04T01:04:20.168Z,30
2023-01-04T01:04:51.927Z,30
2023-01-04T01:05:24.183Z,30
2023-01-04T01:05:56.276Z,30
2023-01-04T01:06:27.964Z,30
2023-01-04T01:06:59.640Z,30
2023-01-04T01:07:31.777Z,30
2023-01-04T01:08:04.402Z,30
2023-01-04T01:08:35.811Z,30
2023-01-04T01:09:07.585Z,30
2023-01-04T01:09:39.926Z,30
2023-01-04T01:10:11.927Z,30
2023-01-04T01:10:43.858Z,30
2023-01-04T01:11:15.569Z,30
2023-01-04T01:11:47.463Z,30
2023-01-04T01:12:19.677Z,30
2023-01-04T01:12:51.554Z,30
2023-01-04T01:13:23.320Z,30
2023-01-04T01:13:56.009Z,30
2023-01-04T01:14:27.532Z,30
2023-01-04T01:15:00.684Z,30
2023-01-04T01:15:31.685Z,30
2023-01-04T01:16:04.014Z,30
2023-01-04T01:16:37.815Z,30
2023-01-04T01:16:57.142Z,30
2023-01-04T01:17:35.560Z,30
2023-01-04T01:18:07.246Z,30
2023-01-04T01:18:39.393Z,30
2023-01-04T01:19:11.465Z,30
2023-01-04T01:19:43.266Z,30
2023-01-04T01:20:15.538Z,30
2023-01-04T01:20:47.227Z,30
2023-01-04T01:21:19.181Z,30
2023-01-04T01:21:51.185Z,30
2023-01-04T01:22:22.972Z,30
2023-01-04T01:22:55.311Z,30
2023-01-04T01:23:27.097Z,30
2023-01-04T01:23:59.239Z,30
2023-01-04T01:24:30.961Z,30
2023-01-04T01:24:47.139Z,30
2023-01-04T01:25:19.562Z,30
2023-01-04T01:26:03.233Z,30
2023-01-04T01:26:35.097Z,30
2023-01-04T01:27:06.882Z,30
2023-01-04T01:27:38.747Z,30
2023-01-04T01:28:11.287Z,30
2023-01-04T01:28:42.964Z,30
2023-01-04T01:29:14.916Z,30
2023-01-04T01:29:46.943Z,30
2023-01-04T01:30:19.318Z,30
2023-01-04T01:30:51.058Z,30
2023-01-04T01:31:22.742Z,30
2023-01-04T01:31:55.153Z,30
2023-01-04T01:32:26.677Z,30
2023-01-04T01:32:58.884Z,30
2023-01-04T01:33:30.738Z,30
2023-01-04T01:33:46.755Z,30
2023-01-04T01:34:30.689Z,30
2023-01-04T01:35:02.909Z,30
2023-01-04T01:35:34.921Z,30
2023-01-04T01:36:06.468Z,30
2023-01-04T01:36:38.495Z,30
2023-01-04T01:37:10.840Z,30
2023-01-04T01:37:42.608Z,30
2023-01-04T01:38:14.454Z,30
2023-01-04T01:38:46.456Z,30
2023-01-04T01:39:18.592Z,30
2023-01-04T01:39:50.487Z,30
2023-01-04T01:40:22.465Z,30
2023-01-04T01:40:54.482Z,30
2023-01-04T01:41:26.400Z,30
2023-01-04T01:41:58.415Z,30
2023-01-04T01:42:30.262Z,30
2023-01-04T01:42:46.410Z,30
2023-01-04T01:43:18.420Z,30
2023-01-04T01:44:02.502Z,30
2023-01-04T01:44:34.397Z,30
2023-01-04T01:45:07.173Z,30
2023-01-04T01:45:38.153Z,30
2023-01-04T01:46:10.433Z,30
2023-01-04T01:46:42.256Z,30
2023-01-04T01:47:14.135Z,30
2023-01-04T01:47:45.993Z,30
2023-01-04T01:48:02.475Z,30
2023-01-04T01:48:34.099Z,30
2023-01-04T01:49:18.130Z,30
2023-01-04T01:49:50.063Z,30
2023-01-04T01:50:22.166Z,319
2023-01-04T01:50:53.921Z,263
2023-01-04T01:51:26.211Z,270
2023-01-04T01:51:57.906Z,270
2023-01-04T01:52:30.036Z,245
2023-01-04T01:52:46.026Z,246
2023-01-04T01:53:29.803Z,252
2023-01-04T01:54:02.116Z,252
2023-01-04T01:54:33.678Z,251
2023-01-04T01:55:06.197Z,252
2023-01-04T01:55:37.806Z,251
2023-01-04T01:56:10.120Z,251
2023-01-04T01:56:41.860Z,251
2023-01-04T01:57:13.740Z,251
2023-01-04T01:57:45.948Z,251
2023-01-04T01:58:17.667Z,251
2023-01-04T01:58:49.624Z,251
2023-01-04T01:59:21.517Z,251
2023-01-04T01:59:53.572Z,251
2023-01-04T02:00:26.275Z,251
2023-01-04T02:00:57.743Z,251
2023-01-04T02:01:29.732Z,200
2023-01-04T02:01:46.060Z,200
2023-01-04T02:02:17.659Z,199
2023-01-04T02:02:33.734Z,180
2023-01-04T02:03:06.350Z,180
2023-01-04T02:03:37.376Z,188
2023-01-04T02:04:09.468Z,182
2023-01-04T02:04:41.460Z,182
2023-01-04T02:05:13.895Z,176
2023-01-04T02:05:45.600Z,170
2023-01-04T02:06:01.417Z,168
2023-01-04T02:06:33.134Z,168
2023-01-04T02:07:17.360Z,168
2023-01-04T02:07:49.445Z,168
2023-01-04T02:08:21.318Z,168
2023-01-04T02:08:53.232Z,168
2023-01-04T02:09:25.491Z,168
2023-01-04T02:09:57.202Z,168
2023-01-04T02:10:29.499Z,168
2023-01-04T02:10:45.521Z,168
2023-01-04T02:11:29.040Z,168
2023-01-04T02:12:01.348Z,168
2023-01-04T02:12:33.106Z,168
2023-01-04T02:13:05.665Z,168
2023-01-04T02:13:36.943Z,168
2023-01-04T02:14:08.999Z,168
2023-01-04T02:14:41.262Z,168
2023-01-04T02:15:13.640Z,168
2023-01-04T02:15:45.131Z,168
2023-01-04T02:16:17.003Z,168
2023-01-04T02:16:48.921Z,168
2023-01-04T02:17:20.942Z,168
2023-01-04T02:17:52.863Z,168
2023-01-04T02:18:25.289Z,168
2023-01-04T02:18:56.885Z,168
2023-01-04T02:19:28.814Z,168
2023-01-04T02:19:45.175Z,168
2023-01-04T02:20:16.921Z,168
2023-01-04T02:20:32.692Z,168
2023-01-04T02:21:05.461Z,168
2023-01-04T02:21:36.587Z,168
2023-01-04T02:22:08.592Z,168
2023-01-04T02:22:40.713Z,168
2023-01-04T02:23:12.649Z,168
2023-01-04T02:23:44.860Z,168
2023-01-04T02:24:00.674Z,168
2023-01-04T02:24:32.459Z,168
2023-01-04T02:25:16.843Z,168
2023-01-04T02:25:48.546Z,168
2023-01-04T02:26:20.559Z,168
2023-01-04T02:26:52.419Z,168
2023-01-04T02:27:24.466Z,168
2023-01-04T02:27:56.521Z,168
2023-01-04T02:28:28.179Z,168
2023-01-04T02:28:44.609Z,168
2023-01-04T02:29:28.402Z,168
2023-01-04T02:30:00.891Z,168
2023-01-04T02:30:32.395Z,168
2023-01-04T02:31:04.549Z,168
2023-01-04T02:31:36.302Z,168
2023-01-04T02:32:08.210Z,168
2023-01-04T02:32:40.564Z,168
2023-01-04T02:33:12.069Z,168
2023-01-04T02:33:44.253Z,168
2023-01-04T02:34:16.343Z,168
2023-01-04T02:34:51.059Z,168
2023-01-04T02:35:20.467Z,168
2023-01-04T02:35:52.004Z,168
2023-01-04T02:36:24.234Z,168
2023-01-04T02:36:56.405Z,168
2023-01-04T02:37:27.830Z,168
2023-01-04T02:37:44.431Z,168
2023-01-04T02:38:15.908Z,168
2023-01-04T02:38:31.963Z,168
2023-01-04T02:39:04.472Z,168
2023-01-04T02:39:35.866Z,168
2023-01-04T02:40:08.050Z,168
2023-01-04T02:40:39.977Z,168
2023-01-04T02:41:12.058Z,168
2023-01-04T02:41:43.854Z,168
2023-01-04T02:41:59.972Z,168
2023-01-04T02:42:31.943Z,168
2023-01-04T02:43:16.406Z,168
2023-01-04T02:43:47.817Z,168
2023-01-04T02:44:19.792Z,168
2023-01-04T02:44:51.601Z,168
2023-01-04T02:45:24.107Z,168
2023-01-04T02:45:55.892Z,168
2023-01-04T02:46:27.520Z,168
2023-01-04T02:46:43.924Z,168
2023-01-04T02:47:27.474Z,168
2023-01-04T02:47:59.767Z,168
2023-01-04T02:48:31.683Z,168
2023-01-04T02:49:03.606Z,168
2023-01-04T02:49:35.532Z,168
2023-01-04T02:50:07.751Z,168
2023-01-04T02:50:39.477Z,168
2023-01-04T02:51:11.506Z,168
2023-01-04T02:51:43.376Z,168
2023-01-04T02:52:15.487Z,168
2023-01-04T02:52:47.418Z,168
2023-01-04T02:53:19.337Z,168
2023-01-04T02:53:51.387Z,168
2023-01-04T02:54:23.339Z,168
2023-01-04T02:54:55.620Z,168
2023-01-04T02:55:27.431Z,168
2023-01-04T02:55:59.237Z,168
2023-01-04T02:56:31.288Z,168
2023-01-04T02:57:05.941Z,168
2023-01-04T02:57:35.280Z,168
2023-01-04T02:58:07.072Z,168
2023-01-04T02:58:39.160Z,168
2023-01-04T02:59:11.315Z,168
2023-01-04T02:59:43.029Z,168
2023-01-04T02:59:59.352Z,168
2023-01-04T03:00:31.528Z,168
2023-01-04T03:01:15.256Z,168
2023-01-04T03:01:47.266Z,168
2023-01-04T03:02:19.053Z,168
2023-01-04T03:02:51.116Z,168
2023-01-04T03:03:23.062Z,272
2023-01-04T03:03:55.469Z,260
2023-01-04T03:04:27.006Z,260
2023-01-04T03:04:42.891Z,288
2023-01-04T03:05:27.287Z,296
2023-01-04T03:05:58.835Z,296
2023-01-04T03:06:30.701Z,296
2023-01-04T03:07:03.468Z,295
2023-01-04T03:07:34.909Z,290
2023-01-04T03:08:06.741Z,290
2023-01-04T03:08:38.568Z,290
2023-01-04T03:09:10.813Z,290
2023-01-04T03:09:42.760Z,290
2023-01-04T03:10:15.200Z,290
2023-01-04T03:10:46.800Z,290
2023-01-04T03:11:18.495Z,290
2023-01-04T03:11:50.715Z,290
2023-01-04T03:12:22.571Z,290
2023-01-04T03:12:54.683Z,290
2023-01-04T03:13:26.644Z,288
2023-01-04T03:13:42.616Z,290
2023-01-04T03:14:30.802Z,290
2023-01-04T03:14:36.508Z,290
2023-01-04T03:15:05.676Z,293
2023-01-04T03:15:34.416Z,290
2023-01-04T03:16:06.500Z,298
2023-01-04T03:16:38.447Z,309
2023-01-04T03:17:10.578Z,322
2023-01-04T03:17:42.328Z,328
2023-01-04T03:17:58.464Z,329
2023-01-04T03:18:30.417Z,330
2023-01-04T03:19:14.494Z,336
2023-01-04T03:19:46.343Z,336
2023-01-04T03:20:18.431Z,336
2023-01-04T03:20:50.384Z,352
2023-01-04T03:21:22.157Z,352
2023-01-04T03:21:54.181Z,104
2023-01-04T03:22:26.256Z,125
2023-01-04T03:22:42.397Z,102
2023-01-04T03:23:26.285Z,88
2023-01-04T03:23:58.131Z,106
2023-01-04T03:24:30.078Z,96
2023-01-04T03:25:02.615Z,101
2023-01-04T03:25:34.002Z,105
2023-01-04T03:26:06.142Z,63
2023-01-04T03:26:37.822Z,97
2023-01-04T03:27:09.952Z,94
2023-01-04T03:27:42.092Z,107
2023-01-04T03:28:14.233Z,106
2023-01-04T03:28:46.001Z,114
2023-01-04T03:29:17.841Z,92
2023-01-04T03:29:50.080Z,88
2023-01-04T03:30:22.247Z,108
2023-01-04T03:30:53.905Z,100
2023-01-04T03:31:26.026Z,81
2023-01-04T03:31:42.083Z,89
2023-01-04T03:32:13.633Z,91
2023-01-04T03:32:29.975Z,94
2023-01-04T03:33:02.551Z,91
2023-01-04T03:33:33.548Z,96
2023-01-04T03:34:05.847Z,96
2023-01-04T03:34:37.717Z,95
2023-01-04T03:35:09.998Z,96
2023-01-04T03:35:41.645Z,96
2023-01-04T03:35:57.880Z,96
2023-01-04T03:36:29.691Z,96
2023-01-04T03:37:13.605Z,96
2023-01-04T03:37:45.564Z,96
2023-01-04T03:38:17.443Z,96
2023-01-04T03:38:49.557Z,96
2023-01-04T03:39:21.454Z,96
2023-01-04T03:39:53.266Z,96
2023-01-04T03:40:25.873Z,96
2023-01-04T03:40:57.431Z,96
2023-01-04T03:41:29.759Z,96
2023-01-04T03:42:01.477Z,96
2023-01-04T03:42:33.236Z,96
2023-01-04T03:43:05.699Z,96
2023-01-04T03:43:37.178Z,96
2023-01-04T03:44:09.324Z,96
2023-01-04T03:44:41.317Z,96
2023-01-04T03:44:57.434Z,96
2023-01-04T03:45:41.746Z,96
2023-01-04T03:46:13.330Z,96
2023-01-04T03:46:45.476Z,96
2023-01-04T03:47:17.168Z,96
2023-01-04T03:47:49.049Z,96
2023-01-04T03:48:21.146Z,95
2023-01-04T03:48:53.082Z,96
2023-01-04T03:49:25.059Z,96
2023-01-04T03:49:57.018Z,95
2023-01-04T03:50:29.321Z,95
2023-01-04T03:51:00.971Z,96
2023-01-04T03:51:32.893Z,96
2023-01-04T03:52:05.115Z,96
2023-01-04T03:52:36.846Z,96
2023-01-04T03:53:08.885Z,96
2023-01-04T03:53:40.865Z,96
2023-01-04T03:53:56.912Z,96
2023-01-04T03:54:28.844Z,104
2023-01-04T03:55:13.092Z,156
2023-01-04T03:55:45.073Z,156
2023-01-04T03:56:16.576Z,153
2023-01-04T03:56:48.661Z,145
2023-01-04T03:57:20.876Z,145
2023-01-04T03:57:52.760Z,145
2023-01-04T03:58:24.603Z,144
2023-01-04T03:58:40.931Z,145
2023-01-04T03:59:24.749Z,145
2023-01-04T03:59:56.718Z,145
2023-01-04T04:00:28.801Z,145
2023-01-04T04:01:00.806Z,145
2023-01-04T04:01:32.726Z,145
2023-01-04T04:02:05.230Z,145
2023-01-04T04:02:36.700Z,144
2023-01-04T04:03:08.432Z,145
2023-01-04T04:03:40.537Z,145
2023-01-04T04:04:12.683Z,136
2023-01-04T04:04:44.717Z,137
2023-01-04T04:05:16.576Z,136
2023-01-04T04:05:48.603Z,136
2023-01-04T04:06:20.467Z,136
2023-01-04T04:06:52.323Z,134
2023-01-04T04:07:24.244Z,132
2023-01-04T04:07:40.417Z,132
2023-01-04T04:08:12.312Z,131
2023-01-04T04:08:28.147Z,126
2023-01-04T04:09:00.489Z,120
2023-01-04T04:09:32.060Z,120
2023-01-04T04:10:05.223Z,121
2023-01-04T04:10:36.310Z,112
2023-01-04T04:11:08.188Z,107
2023-01-04T04:11:40.101Z,116
2023-01-04T04:11:56.825Z,119
2023-01-04T04:12:28.337Z,91
2023-01-04T04:13:12.057Z,104
2023-01-04T04:13:44.018Z,102
2023-01-04T04:14:16.061Z,100
2023-01-04T04:14:48.017Z,87
2023-01-04T04:15:20.294Z,88
2023-01-04T04:15:51.909Z,98
2023-01-04T04:16:24.008Z,100
2023-01-04T04:16:40.259Z,99
2023-01-04T04:17:23.926Z,77
2023-01-04T04:17:55.979Z,96
2023-01-04T04:18:27.799Z,93
2023-01-04T04:19:03.247Z,91
2023-01-04T04:19:31.717Z,108
2023-01-04T04:20:04.805Z,96
2023-01-04T04:20:35.818Z,98
2023-01-04T04:21:07.619Z,99
2023-01-04T04:21:39.858Z,98
2023-01-04T04:22:11.817Z,98
2023-01-04T04:22:43.561Z,98
2023-01-04T04:23:15.717Z,99
2023-01-04T04:23:47.556Z,99
2023-01-04T04:24:19.575Z,99
2023-01-04T04:24:51.521Z,99
2023-01-04T04:25:23.824Z,100
2023-01-04T04:25:39.733Z,100
2023-01-04T04:26:11.642Z,100
2023-01-04T04:26:27.639Z,100
2023-01-04T04:26:59.605Z,101
2023-01-04T04:27:31.422Z,105
2023-01-04T04:28:04.033Z,105
2023-01-04T04:28:35.665Z,105
2023-01-04T04:29:07.265Z,105
2023-01-04T04:29:39.458Z,105
2023-01-04T04:29:55.519Z,105
2023-01-04T04:30:27.610Z,105
2023-01-04T04:31:11.505Z,97
2023-01-04T04:31:43.173Z,100
2023-01-04T04:32:15.526Z,103
2023-01-04T04:32:47.244Z,105
2023-01-04T04:33:19.253Z,105
2023-01-04T04:33:51.136Z,105
2023-01-04T04:34:23.206Z,105
2023-01-04T04:34:39.325Z,105
2023-01-04T04:35:23.288Z,105
2023-01-04T04:35:55.402Z,105
2023-01-04T04:36:27.088Z,105
2023-01-04T04:36:59.065Z,105
2023-01-04T04:37:31.279Z,105
2023-01-04T04:38:03.926Z,105
2023-01-04T04:38:34.939Z,105
2023-01-04T04:39:07.055Z,105
2023-01-04T04:39:39.162Z,105
2023-01-04T04:40:11.396Z,105
2023-01-04T04:40:42.793Z,105
2023-01-04T04:41:15.021Z,105
2023-01-04T04:41:46.830Z,105
2023-01-04T04:42:18.984Z,107
2023-01-04T04:42:50.777Z,97
2023-01-04T04:43:22.626Z,98
2023-01-04T04:43:54.999Z,98
2023-01-04T04:44:26.787Z,97
2023-01-04T04:44:58.711Z,98
2023-01-04T04:45:31.334Z,98
2023-01-04T04:46:03.357Z,98
2023-01-04T04:46:34.715Z,98
2023-01-04T04:47:06.652Z,98
2023-01-04T04:47:38.628Z,98
2023-01-04T04:47:54.820Z,98
2023-01-04T04:48:26.724Z,98
2023-01-04T04:49:10.741Z,98
2023-01-04T04:49:42.528Z,98
2023-01-04T04:50:14.970Z,98
2023-01-04T04:50:46.481Z,98
2023-01-04T04:51:18.523Z,98
2023-01-04T04:51:50.429Z,98
2023-01-04T04:52:22.294Z,98
2023-01-04T04:52:56.291Z,98
2023-01-04T04:53:26.590Z,98
2023-01-04T04:53:58.285Z,98
2023-01-04T04:54:30.493Z,97
2023-01-04T04:55:03.076Z,100
2023-01-04T04:55:34.346Z,102
2023-01-04T04:56:06.316Z,104
2023-01-04T04:56:38.143Z,102
2023-01-04T04:56:54.548Z,101
2023-01-04T04:57:38.214Z,99
2023-01-04T04:58:10.365Z,106
2023-01-04T04:58:42.067Z,103
2023-01-04T04:59:14.168Z,103
2023-01-04T04:59:46.199Z,103
2023-01-04T05:00:19.476Z,103
2023-01-04T05:00:49.973Z,103
2023-01-04T05:01:22.112Z,102
2023-01-04T05:01:38.112Z,103
2023-01-04T05:02:10.512Z,104
2023-01-04T05:02:26.628Z,112
2023-01-04T05:02:58.009Z,112
2023-01-04T05:03:30.273Z,112
2023-01-04T05:04:02.597Z,112
2023-01-04T05:04:33.953Z,112
2023-01-04T05:05:06.260Z,112
2023-01-04T05:05:37.813Z,112
2023-01-04T05:05:54.426Z,112
2023-01-04T05:06:25.952Z,112
2023-01-04T05:07:12.619Z,103
2023-01-04T05:07:41.684Z,98
2023-01-04T05:08:13.637Z,98
2023-01-04T05:08:45.777Z,111
2023-01-04T05:09:17.668Z,112
2023-01-04T05:09:49.560Z,121
2023-01-04T05:10:21.921Z,112
2023-01-04T05:10:37.684Z,112
2023-01-04T05:11:21.824Z,108
2023-01-04T05:11:53.789Z,103
2023-01-04T05:12:25.764Z,108
2023-01-04T05:12:58.058Z,112
2023-01-04T05:13:29.523Z,103
2023-01-04T05:14:02.014Z,106
2023-01-04T05:14:33.404Z,108
2023-01-04T05:15:06.818Z,108
2023-01-04T05:15:37.430Z,111
2023-01-04T05:16:09.551Z,103
2023-01-04T05:16:41.473Z,106
2023-01-04T05:17:15.704Z,111
2023-01-04T05:17:45.413Z,87
2023-01-04T05:18:17.297Z,103
2023-01-04T05:18:49.212Z,103
2023-01-04T05:19:21.240Z,101
2023-01-04T05:19:53.258Z,102
2023-01-04T05:20:25.880Z,84
2023-01-04T05:20:57.199Z,93
2023-01-04T05:21:29.035Z,93
2023-01-04T05:22:01.231Z,93
2023-01-04T05:22:33.218Z,93
2023-01-04T05:23:06.021Z,95
2023-01-04T05:23:37.160Z,95
2023-01-04T05:23:53.196Z,95
2023-01-04T05:24:25.355Z,91
2023-01-04T05:25:09.574Z,67
2023-01-04T05:25:41.003Z,71
2023-01-04T05:26:13.012Z,94
2023-01-04T05:26:45.132Z,66
2023-01-04T05:27:17.028Z,235
2023-01-04T05:27:48.900Z,235
2023-01-04T05:28:21.062Z,300
2023-01-04T05:28:54.216Z,300
2023-01-04T05:29:25.012Z,311
2023-01-04T05:29:56.870Z,265
2023-01-04T05:30:29.127Z,285
2023-01-04T05:31:00.991Z,285
2023-01-04T05:31:32.820Z,310
2023-01-04T05:32:05.419Z,310
2023-01-04T05:32:36.803Z,310
2023-01-04T05:33:08.963Z,310
2023-01-04T05:33:40.720Z,310
2023-01-04T05:34:17.040Z,304
2023-01-04T05:34:44.679Z,293
2023-01-04T05:35:16.855Z,314
2023-01-04T05:35:48.585Z,14
2023-01-04T05:36:20.561Z,330
2023-01-04T05:36:52.521Z,306
2023-01-04T05:37:24.950Z,300
2023-01-04T05:37:56.425Z,9
2023-01-04T05:38:28.462Z,13
2023-01-04T05:39:00.592Z,13
2023-01-04T05:39:32.436Z,13
2023-01-04T05:40:06.953Z,13
2023-01-04T05:40:36.511Z,13
2023-01-04T05:41:08.805Z,13
2023-01-04T05:41:40.595Z,13
2023-01-04T05:42:12.353Z,13
2023-01-04T05:42:44.218Z,13
2023-01-04T05:43:16.382Z,13
2023-01-04T05:43:48.251Z,13
2023-01-04T05:44:20.100Z,13
2023-01-04T05:44:52.221Z,335
2023-01-04T05:45:24.821Z,300
2023-01-04T05:45:56.297Z,298
2023-01-04T05:46:28.213Z,281
2023-01-04T05:47:00.154Z,281
2023-01-04T05:47:32.010Z,22
2023-01-04T05:48:04.845Z,282
2023-01-04T05:48:36.126Z,269
2023-01-04T05:48:52.159Z,302
2023-01-04T05:49:36.153Z,292
2023-01-04T05:50:08.265Z,296
2023-01-04T05:50:40.069Z,290
2023-01-04T05:51:11.925Z,290
2023-01-04T05:51:43.985Z,290
2023-01-04T05:52:16.217Z,290
2023-01-04T05:52:47.958Z,302
2023-01-04T05:53:19.838Z,262
2023-01-04T05:53:51.964Z,317
2023-01-04T05:54:24.111Z,307
2023-01-04T05:54:55.963Z,280
2023-01-04T05:55:28.128Z,302
2023-01-04T05:55:59.797Z,273
2023-01-04T05:56:31.799Z,313
2023-01-04T05:57:04.132Z,302
2023-01-04T05:57:35.767Z,296
2023-01-04T05:58:07.754Z,298
2023-01-04T05:58:39.756Z,260
2023-01-04T05:59:11.674Z,277
2023-01-04T05:59:43.727Z,283
2023-01-04T06:00:19.367Z,249
2023-01-04T06:00:47.555Z,296
2023-01-04T06:01:19.661Z,305
2023-01-04T06:01:51.801Z,350
2023-01-04T06:02:23.468Z,295
2023-01-04T06:02:55.806Z,295
2023-01-04T06:03:27.818Z,311
2023-01-04T06:03:59.541Z,309
2023-01-04T06:04:31.341Z,287
2023-01-04T06:05:09.267Z,321
2023-01-04T06:05:35.457Z,326
2023-01-04T06:06:07.500Z,311
2023-01-04T06:06:39.347Z,52
2023-01-04T06:07:11.355Z,303
2023-01-04T06:07:43.255Z,269
2023-01-04T06:08:15.702Z,293
2023-01-04T06:08:47.246Z,307
2023-01-04T06:09:19.364Z,271
2023-01-04T06:09:51.286Z,275
2023-01-04T06:10:23.362Z,275
2023-01-04T06:10:55.376Z,275
2023-01-04T06:11:27.940Z,275
2023-01-04T06:11:59.045Z,276
2023-01-04T06:12:31.263Z,276
2023-01-04T06:13:03.663Z,276
2023-01-04T06:13:35.071Z,276
2023-01-04T06:14:07.054Z,276
2023-01-04T06:14:39.171Z,276
2023-01-04T06:15:15.703Z,276
2023-01-04T06:15:43.500Z,283
2023-01-04T06:16:15.061Z,282
2023-01-04T06:16:46.966Z,282
2023-01-04T06:17:18.892Z,309
2023-01-04T06:17:35.084Z,315
2023-01-04T06:18:18.929Z,325
2023-01-04T06:18:50.926Z,325
2023-01-04T06:19:24.262Z,331
2023-01-04T06:19:54.895Z,331
2023-01-04T06:20:30.024Z,331
2023-01-04T06:20:58.715Z,336
2023-01-04T06:21:30.810Z,349
2023-01-04T06:22:03.113Z,349
2023-01-04T06:22:34.924Z,349
2023-01-04T06:22:50.695Z,349
2023-01-04T06:23:34.853Z,349
2023-01-04T06:24:06.703Z,349
2023-01-04T06:24:38.389Z,349
2023-01-04T06:25:10.840Z,349
2023-01-04T06:25:45.040Z,350
2023-01-04T06:26:14.540Z,353
2023-01-04T06:26:46.433Z,353
2023-01-04T06:27:18.529Z,353
2023-01-04T06:27:50.302Z,84
2023-01-04T06:28:22.454Z,95
2023-01-04T06:28:54.372Z,69
2023-01-04T06:29:26.435Z,81
2023-01-04T06:29:58.399Z,80
2023-01-04T06:30:34.922Z,69
2023-01-04T06:31:02.520Z,84
2023-01-04T06:31:34.290Z,66
2023-01-04T06:31:50.333Z,68
2023-01-04T06:32:22.194Z,86
2023-01-04T06:33:06.468Z,80
2023-01-04T06:33:38.100Z,78
2023-01-04T06:34:10.268Z,60
2023-01-04T06:34:42.249Z,59
2023-01-04T06:35:14.504Z,60
2023-01-04T06:35:46.073Z,60
2023-01-04T06:36:19.822Z,89
2023-01-04T06:36:34.370Z,89
2023-01-04T06:37:17.941Z,96
2023-01-04T06:37:50.087Z,90
2023-01-04T06:38:21.866Z,82
2023-01-04T06:38:53.996Z,94
2023-01-04T06:39:26.209Z,100
2023-01-04T06:39:58.058Z,99
2023-01-04T06:40:30.036Z,94
2023-01-04T06:41:02.054Z,77
2023-01-04T06:41:34.032Z,77
2023-01-04T06:42:07.189Z,44
2023-01-04T06:42:37.687Z,64
2023-01-04T06:43:09.899Z,73
2023-01-04T06:43:41.679Z,75
2023-01-04T06:44:13.822Z,96
2023-01-04T06:44:45.690Z,97
2023-01-04T06:45:18.180Z,96
2023-01-04T06:45:33.944Z,86
2023-01-04T06:46:06.035Z,83
2023-01-04T06:46:21.884Z,96
2023-01-04T06:46:53.593Z,94
2023-01-04T06:47:25.717Z,82
2023-01-04T06:47:57.610Z,91
2023-01-04T06:48:29.553Z,92
2023-01-04T06:49:01.577Z,81
2023-01-04T06:49:33.451Z,77
2023-01-04T06:49:49.721Z,74
2023-01-04T06:50:21.680Z,97
2023-01-04T06:51:05.689Z,96
2023-01-04T06:51:37.401Z,116
2023-01-04T06:52:09.479Z,104
2023-01-04T06:52:41.563Z,81
2023-01-04T06:53:13.450Z,91
2023-01-04T06:53:45.281Z,100
2023-01-04T06:54:17.251Z,99
2023-01-04T06:54:33.445Z,102
2023-01-04T06:55:17.487Z,86
2023-01-04T06:55:49.404Z,101
2023-01-04T06:56:21.147Z,87
2023-01-04T06:56:53.135Z,83
2023-01-04T06:57:25.388Z,92
2023-01-04T06:57:59.603Z,88
2023-01-04T06:58:29.159Z,85
2023-01-04T06:59:01.291Z,92
2023-01-04T06:59:33.043Z,74
2023-01-04T07:00:06.640Z,89
2023-01-04T07:00:36.999Z,97
2023-01-04T07:01:09.203Z,97
2023-01-04T07:01:41.383Z,98
2023-01-04T07:02:13.205Z,105
2023-01-04T07:03:13.857Z,108
2023-01-04T07:03:19.055Z,84
2023-01-04T07:03:49.025Z,99
2023-01-04T07:04:21.165Z,104
2023-01-04T07:04:52.945Z,108
2023-01-04T07:05:25.253Z,104
2023-01-04T07:05:56.859Z,110
2023-01-04T07:06:28.926Z,88
2023-01-04T07:07:00.762Z,91
2023-01-04T07:07:32.724Z,63
2023-01-04T07:08:09.419Z,124
2023-01-04T07:08:36.826Z,88
2023-01-04T07:09:08.673Z,77
2023-01-04T07:09:40.938Z,96
2023-01-04T07:10:13.027Z,100
2023-01-04T07:10:44.657Z,100
2023-01-04T07:11:16.671Z,112
2023-01-04T07:11:32.744Z,112
2023-01-04T07:12:16.641Z,86
2023-01-04T07:12:48.645Z,93
2023-01-04T07:13:20.723Z,98
2023-01-04T07:13:52.387Z,95
2023-01-04T07:14:24.575Z,311
2023-01-04T07:14:56.646Z,92
2023-01-04T07:15:38.130Z,93
2023-01-04T07:16:00.524Z,82
2023-01-04T07:16:32.474Z,102
2023-01-04T07:17:05.148Z,144
2023-01-04T07:17:36.529Z,105